sensor_id;sensor_type;location;lat;lon;timestamp;P1;durP1;ratioP1;P2;durP2;ratioP2
14137;SDS011;8199;51.310;9.466;2023-10-09T00:01:49;2.13;;;1.80;;
14137;SDS011;8199;51.310;9.466;2023-10-09T00:04:16;2.30;;;1.40;;
14137;SDS011;8199;51.310;9.466;2023-10-09T00:06:41;1.70;;;1.25;;
14137;SDS011;8199;51.310;9.466;2023-10-09T00:09:07;2.13;;;1.50;;
14137;SDS011;8199;51.310;9.466;2023-10-09T00:11:56;2.22;;;1.55;;
14137;SDS011;8199;51.310;9.466;2023-10-09T00:14:23;1.80;;;1.40;;
14137;SDS011;8199;51.310;9.466;2023-10-09T00:16:55;2.20;;;1.55;;
14137;SDS011;8199;51.310;9.466;2023-10-09T00:19:41;1.60;;;1.20;;
14137;SDS011;8199;51.310;9.466;2023-10-09T00:22:08;1.52;;;1.33;;
14137;SDS011;8199;51.310;9.466;2023-10-09T00:24:50;1.67;;;1.58;;
14137;SDS011;8199;51.310;9.466;2023-10-09T00:27:36;1.55;;;1.30;;
14137;SDS011;8199;51.310;9.466;2023-10-09T00:30:11;2.45;;;1.42;;
14137;SDS011;8199;51.310;9.466;2023-10-09T00:32:40;1.02;;;0.93;;
14137;SDS011;8199;51.310;9.466;2023-10-09T00:35:08;1.83;;;1.10;;
14137;SDS011;8199;51.310;9.466;2023-10-09T00:37:53;2.78;;;1.70;;
14137;SDS011;8199;51.310;9.466;2023-10-09T00:40:30;1.50;;;1.23;;
14137;SDS011;8199;51.310;9.466;2023-10-09T00:42:57;1.23;;;1.13;;
14137;SDS011;8199;51.310;9.466;2023-10-09T00:45:27;2.20;;;1.38;;
14137;SDS011;8199;51.310;9.466;2023-10-09T00:47:57;2.47;;;1.23;;
14137;SDS011;8199;51.310;9.466;2023-10-09T00:50:26;2.30;;;1.35;;
14137;SDS011;8199;51.310;9.466;2023-10-09T00:53:00;1.90;;;1.30;;
14137;SDS011;8199;51.310;9.466;2023-10-09T00:55:28;1.30;;;1.20;;
14137;SDS011;8199;51.310;9.466;2023-10-09T00:58:20;1.40;;;1.30;;
14137;SDS011;8199;51.310;9.466;2023-10-09T01:00:51;1.30;;;1.20;;
14137;SDS011;8199;51.310;9.466;2023-10-09T01:03:18;2.08;;;1.30;;
14137;SDS011;8199;51.310;9.466;2023-10-09T01:05:49;2.03;;;1.40;;
14137;SDS011;8199;51.310;9.466;2023-10-09T01:08:20;1.75;;;1.35;;
14137;SDS011;8199;51.310;9.466;2023-10-09T01:10:58;2.40;;;1.30;;
14137;SDS011;8199;51.310;9.466;2023-10-09T01:13:39;1.45;;;1.23;;
14137;SDS011;8199;51.310;9.466;2023-10-09T01:16:13;1.10;;;1.00;;
14137;SDS011;8199;51.310;9.466;2023-10-09T01:18:49;1.50;;;1.10;;
14137;SDS011;8199;51.310;9.466;2023-10-09T01:21:24;1.27;;;1.10;;
14137;SDS011;8199;51.310;9.466;2023-10-09T01:23:51;1.70;;;1.27;;
14137;SDS011;8199;51.310;9.466;2023-10-09T01:26:30;1.48;;;1.33;;
14137;SDS011;8199;51.310;9.466;2023-10-09T01:29:09;1.65;;;1.27;;
14137;SDS011;8199;51.310;9.466;2023-10-09T01:31:39;1.27;;;1.17;;
14137;SDS011;8199;51.310;9.466;2023-10-09T01:34:12;1.80;;;1.33;;
14137;SDS011;8199;51.310;9.466;2023-10-09T01:36:40;2.40;;;1.10;;
14137;SDS011;8199;51.310;9.466;2023-10-09T01:39:06;2.63;;;1.60;;
14137;SDS011;8199;51.310;9.466;2023-10-09T01:41:52;1.52;;;1.27;;
14137;SDS011;8199;51.310;9.466;2023-10-09T01:44:30;1.33;;;1.20;;
14137;SDS011;8199;51.310;9.466;2023-10-09T01:47:02;1.67;;;1.27;;
14137;SDS011;8199;51.310;9.466;2023-10-09T01:49:39;1.30;;;1.20;;
14137;SDS011;8199;51.310;9.466;2023-10-09T01:52:09;2.72;;;1.52;;
14137;SDS011;8199;51.310;9.466;2023-10-09T01:54:41;1.55;;;1.30;;
14137;SDS011;8199;51.310;9.466;2023-10-09T01:57:12;1.75;;;1.40;;
14137;SDS011;8199;51.310;9.466;2023-10-09T01:59:41;1.60;;;1.38;;
14137;SDS011;8199;51.310;9.466;2023-10-09T02:02:14;1.90;;;1.23;;
14137;SDS011;8199;51.310;9.466;2023-10-09T02:07:38;2.03;;;1.30;;
14137;SDS011;8199;51.310;9.466;2023-10-09T02:10:16;4.05;;;1.67;;
14137;SDS011;8199;51.310;9.466;2023-10-09T02:12:58;2.00;;;1.55;;
14137;SDS011;8199;51.310;9.466;2023-10-09T02:15:32;1.80;;;1.70;;
14137;SDS011;8199;51.310;9.466;2023-10-09T02:18:13;1.52;;;1.42;;
14137;SDS011;8199;51.310;9.466;2023-10-09T02:23:29;1.85;;;1.40;;
14137;SDS011;8199;51.310;9.466;2023-10-09T02:26:15;1.80;;;1.40;;
14137;SDS011;8199;51.310;9.466;2023-10-09T02:28:50;1.85;;;1.52;;
14137;SDS011;8199;51.310;9.466;2023-10-09T02:31:29;2.15;;;1.50;;
14137;SDS011;8199;51.310;9.466;2023-10-09T02:34:16;2.17;;;1.40;;
14137;SDS011;8199;51.310;9.466;2023-10-09T02:36:46;1.88;;;1.65;;
14137;SDS011;8199;51.310;9.466;2023-10-09T02:39:22;2.03;;;1.33;;
14137;SDS011;8199;51.310;9.466;2023-10-09T02:41:57;3.28;;;1.50;;
14137;SDS011;8199;51.310;9.466;2023-10-09T02:44:31;1.92;;;1.55;;
14137;SDS011;8199;51.310;9.466;2023-10-09T02:46:59;1.63;;;1.40;;
14137;SDS011;8199;51.310;9.466;2023-10-09T02:49:30;2.58;;;1.65;;
14137;SDS011;8199;51.310;9.466;2023-10-09T02:51:56;2.20;;;1.70;;
14137;SDS011;8199;51.310;9.466;2023-10-09T02:54:21;1.25;;;1.13;;
14137;SDS011;8199;51.310;9.466;2023-10-09T02:56:47;2.38;;;1.60;;
14137;SDS011;8199;51.310;9.466;2023-10-09T02:59:20;2.05;;;1.52;;
14137;SDS011;8199;51.310;9.466;2023-10-09T03:01:49;2.97;;;1.60;;
14137;SDS011;8199;51.310;9.466;2023-10-09T03:04:17;1.77;;;1.40;;
14137;SDS011;8199;51.310;9.466;2023-10-09T03:06:44;1.50;;;1.40;;
14137;SDS011;8199;51.310;9.466;2023-10-09T03:09:19;3.78;;;1.58;;
14137;SDS011;8199;51.310;9.466;2023-10-09T03:11:51;2.15;;;1.70;;
14137;SDS011;8199;51.310;9.466;2023-10-09T03:14:21;2.15;;;1.35;;
14137;SDS011;8199;51.310;9.466;2023-10-09T03:16:52;2.47;;;1.77;;
14137;SDS011;8199;51.310;9.466;2023-10-09T03:19:17;2.42;;;1.58;;
14137;SDS011;8199;51.310;9.466;2023-10-09T03:21:43;2.25;;;1.50;;
14137;SDS011;8199;51.310;9.466;2023-10-09T03:24:09;1.92;;;1.50;;
14137;SDS011;8199;51.310;9.466;2023-10-09T03:26:36;1.80;;;1.60;;
14137;SDS011;8199;51.310;9.466;2023-10-09T03:29:02;3.25;;;1.95;;
14137;SDS011;8199;51.310;9.466;2023-10-09T03:31:34;1.83;;;1.33;;
14137;SDS011;8199;51.310;9.466;2023-10-09T03:34:01;2.30;;;1.67;;
14137;SDS011;8199;51.310;9.466;2023-10-09T03:36:28;2.70;;;1.70;;
14137;SDS011;8199;51.310;9.466;2023-10-09T03:38:55;2.20;;;1.77;;
14137;SDS011;8199;51.310;9.466;2023-10-09T03:41:23;2.40;;;1.45;;
14137;SDS011;8199;51.310;9.466;2023-10-09T03:43:51;2.55;;;1.60;;
14137;SDS011;8199;51.310;9.466;2023-10-09T03:46:19;2.47;;;1.40;;
14137;SDS011;8199;51.310;9.466;2023-10-09T03:48:49;2.28;;;1.65;;
14137;SDS011;8199;51.310;9.466;2023-10-09T03:51:16;1.70;;;1.58;;
14137;SDS011;8199;51.310;9.466;2023-10-09T03:53:48;1.98;;;1.77;;
14137;SDS011;8199;51.310;9.466;2023-10-09T03:56:14;2.95;;;1.90;;
14137;SDS011;8199;51.310;9.466;2023-10-09T03:58:44;2.22;;;1.60;;
14137;SDS011;8199;51.310;9.466;2023-10-09T04:01:11;2.30;;;1.73;;
14137;SDS011;8199;51.310;9.466;2023-10-09T04:03:57;2.88;;;1.65;;
14137;SDS011;8199;51.310;9.466;2023-10-09T04:06:25;2.03;;;1.80;;
14137;SDS011;8199;51.310;9.466;2023-10-09T04:08:58;2.42;;;1.67;;
14137;SDS011;8199;51.310;9.466;2023-10-09T04:11:48;1.92;;;1.70;;
14137;SDS011;8199;51.310;9.466;2023-10-09T04:14:33;2.00;;;1.60;;
14137;SDS011;8199;51.310;9.466;2023-10-09T04:16:59;1.63;;;1.48;;
14137;SDS011;8199;51.310;9.466;2023-10-09T04:19:31;1.95;;;1.80;;
14137;SDS011;8199;51.310;9.466;2023-10-09T04:22:04;3.90;;;2.35;;
14137;SDS011;8199;51.310;9.466;2023-10-09T04:24:34;2.45;;;2.00;;
14137;SDS011;8199;51.310;9.466;2023-10-09T04:27:06;2.20;;;1.58;;
14137;SDS011;8199;51.310;9.466;2023-10-09T04:29:33;3.13;;;1.88;;
14137;SDS011;8199;51.310;9.466;2023-10-09T04:32:08;2.50;;;1.90;;
14137;SDS011;8199;51.310;9.466;2023-10-09T04:34:41;3.80;;;1.95;;
14137;SDS011;8199;51.310;9.466;2023-10-09T04:37:36;1.90;;;1.70;;
14137;SDS011;8199;51.310;9.466;2023-10-09T04:40:02;2.13;;;1.88;;
14137;SDS011;8199;51.310;9.466;2023-10-09T04:42:39;2.63;;;1.70;;
14137;SDS011;8199;51.310;9.466;2023-10-09T04:45:23;3.03;;;2.00;;
14137;SDS011;8199;51.310;9.466;2023-10-09T04:48:07;3.05;;;2.10;;
14137;SDS011;8199;51.310;9.466;2023-10-09T04:50:34;3.15;;;2.03;;
14137;SDS011;8199;51.310;9.466;2023-10-09T04:52:59;2.78;;;2.00;;
14137;SDS011;8199;51.310;9.466;2023-10-09T04:55:43;3.90;;;1.95;;
14137;SDS011;8199;51.310;9.466;2023-10-09T04:58:19;6.03;;;2.15;;
14137;SDS011;8199;51.310;9.466;2023-10-09T05:00:49;5.15;;;2.20;;
14137;SDS011;8199;51.310;9.466;2023-10-09T05:03:29;3.55;;;2.00;;
14137;SDS011;8199;51.310;9.466;2023-10-09T05:06:03;3.83;;;2.03;;
14137;SDS011;8199;51.310;9.466;2023-10-09T05:08:45;6.60;;;2.15;;
14137;SDS011;8199;51.310;9.466;2023-10-09T05:11:12;3.92;;;2.30;;
14137;SDS011;8199;51.310;9.466;2023-10-09T05:13:57;4.20;;;2.08;;
14137;SDS011;8199;51.310;9.466;2023-10-09T05:16:37;4.07;;;2.03;;
14137;SDS011;8199;51.310;9.466;2023-10-09T05:19:19;4.38;;;2.30;;
14137;SDS011;8199;51.310;9.466;2023-10-09T05:22:06;4.32;;;2.35;;
14137;SDS011;8199;51.310;9.466;2023-10-09T05:24:35;7.00;;;2.40;;
14137;SDS011;8199;51.310;9.466;2023-10-09T05:27:12;3.10;;;2.20;;
14137;SDS011;8199;51.310;9.466;2023-10-09T05:29:43;2.72;;;2.00;;
14137;SDS011;8199;51.310;9.466;2023-10-09T05:32:24;5.65;;;2.40;;
14137;SDS011;8199;51.310;9.466;2023-10-09T05:34:55;2.90;;;2.15;;
14137;SDS011;8199;51.310;9.466;2023-10-09T05:37:27;3.25;;;2.50;;
14137;SDS011;8199;51.310;9.466;2023-10-09T05:40:01;3.80;;;2.03;;
14137;SDS011;8199;51.310;9.466;2023-10-09T05:42:47;3.03;;;2.38;;
14137;SDS011;8199;51.310;9.466;2023-10-09T05:45:22;4.43;;;3.15;;
14137;SDS011;8199;51.310;9.466;2023-10-09T05:48:06;2.78;;;2.05;;
14137;SDS011;8199;51.310;9.466;2023-10-09T05:50:52;3.03;;;2.25;;
14137;SDS011;8199;51.310;9.466;2023-10-09T05:53:38;2.55;;;2.17;;
14137;SDS011;8199;51.310;9.466;2023-10-09T05:56:10;2.97;;;2.42;;
14137;SDS011;8199;51.310;9.466;2023-10-09T05:58:54;3.33;;;2.28;;
14137;SDS011;8199;51.310;9.466;2023-10-09T06:01:39;3.08;;;2.10;;
14137;SDS011;8199;51.310;9.466;2023-10-09T06:04:23;5.13;;;2.97;;
14137;SDS011;8199;51.310;9.466;2023-10-09T06:07:08;5.95;;;3.10;;
14137;SDS011;8199;51.310;9.466;2023-10-09T06:09:38;6.03;;;3.00;;
14137;SDS011;8199;51.310;9.466;2023-10-09T06:12:17;5.90;;;3.17;;
14137;SDS011;8199;51.310;9.466;2023-10-09T06:15:14;4.15;;;2.80;;
14137;SDS011;8199;51.310;9.466;2023-10-09T06:17:45;6.05;;;3.47;;
14137;SDS011;8199;51.310;9.466;2023-10-09T06:20:17;4.60;;;3.35;;
14137;SDS011;8199;51.310;9.466;2023-10-09T06:23:01;8.05;;;3.40;;
14137;SDS011;8199;51.310;9.466;2023-10-09T06:25:41;5.13;;;3.28;;
14137;SDS011;8199;51.310;9.466;2023-10-09T06:28:28;3.85;;;2.80;;
14137;SDS011;8199;51.310;9.466;2023-10-09T06:30:59;5.93;;;3.40;;
14137;SDS011;8199;51.310;9.466;2023-10-09T06:33:44;5.63;;;3.50;;
14137;SDS011;8199;51.310;9.466;2023-10-09T06:36:30;4.85;;;3.10;;
14137;SDS011;8199;51.310;9.466;2023-10-09T06:38:56;6.25;;;3.30;;
14137;SDS011;8199;51.310;9.466;2023-10-09T06:41:48;5.57;;;3.00;;
14137;SDS011;8199;51.310;9.466;2023-10-09T06:44:33;8.27;;;3.22;;
14137;SDS011;8199;51.310;9.466;2023-10-09T06:47:17;4.22;;;3.03;;
14137;SDS011;8199;51.310;9.466;2023-10-09T06:49:43;7.50;;;2.97;;
14137;SDS011;8199;51.310;9.466;2023-10-09T06:52:29;8.20;;;3.53;;
14137;SDS011;8199;51.310;9.466;2023-10-09T06:55:14;6.03;;;3.20;;
14137;SDS011;8199;51.310;9.466;2023-10-09T06:57:44;5.25;;;3.67;;
14137;SDS011;8199;51.310;9.466;2023-10-09T07:00:14;5.30;;;3.35;;
14137;SDS011;8199;51.310;9.466;2023-10-09T07:02:58;5.95;;;3.80;;
14137;SDS011;8199;51.310;9.466;2023-10-09T07:05:36;5.45;;;3.83;;
14137;SDS011;8199;51.310;9.466;2023-10-09T07:08:22;6.47;;;3.55;;
14137;SDS011;8199;51.310;9.466;2023-10-09T07:10:56;7.10;;;3.42;;
14137;SDS011;8199;51.310;9.466;2023-10-09T07:13:45;7.03;;;3.30;;
14137;SDS011;8199;51.310;9.466;2023-10-09T07:16:19;5.40;;;3.53;;
14137;SDS011;8199;51.310;9.466;2023-10-09T07:18:49;4.65;;;3.30;;
14137;SDS011;8199;51.310;9.466;2023-10-09T07:21:14;5.07;;;3.47;;
14137;SDS011;8199;51.310;9.466;2023-10-09T07:23:43;4.53;;;3.15;;
14137;SDS011;8199;51.310;9.466;2023-10-09T07:26:14;4.30;;;3.20;;
14137;SDS011;8199;51.310;9.466;2023-10-09T07:28:43;7.05;;;3.75;;
14137;SDS011;8199;51.310;9.466;2023-10-09T07:31:16;8.10;;;4.18;;
14137;SDS011;8199;51.310;9.466;2023-10-09T07:33:49;8.57;;;4.70;;
14137;SDS011;8199;51.310;9.466;2023-10-09T07:36:21;8.77;;;3.88;;
14137;SDS011;8199;51.310;9.466;2023-10-09T07:38:59;7.25;;;3.75;;
14137;SDS011;8199;51.310;9.466;2023-10-09T07:41:37;9.45;;;4.32;;
14137;SDS011;8199;51.310;9.466;2023-10-09T07:44:09;13.00;;;4.20;;
14137;SDS011;8199;51.310;9.466;2023-10-09T07:46:44;9.50;;;4.72;;
14137;SDS011;8199;51.310;9.466;2023-10-09T07:49:38;13.10;;;4.70;;
14137;SDS011;8199;51.310;9.466;2023-10-09T07:52:04;9.57;;;4.35;;
14137;SDS011;8199;51.310;9.466;2023-10-09T07:54:31;8.82;;;4.47;;
14137;SDS011;8199;51.310;9.466;2023-10-09T07:57:14;11.90;;;5.00;;
14137;SDS011;8199;51.310;9.466;2023-10-09T07:59:41;11.05;;;4.70;;
14137;SDS011;8199;51.310;9.466;2023-10-09T08:02:19;14.77;;;4.57;;
14137;SDS011;8199;51.310;9.466;2023-10-09T08:05:00;14.32;;;4.63;;
14137;SDS011;8199;51.310;9.466;2023-10-09T08:07:32;9.63;;;4.25;;
14137;SDS011;8199;51.310;9.466;2023-10-09T08:10:04;8.57;;;4.32;;
14137;SDS011;8199;51.310;9.466;2023-10-09T08:12:42;9.13;;;4.05;;
14137;SDS011;8199;51.310;9.466;2023-10-09T08:15:14;8.52;;;4.03;;
14137;SDS011;8199;51.310;9.466;2023-10-09T08:17:46;11.25;;;4.75;;
14137;SDS011;8199;51.310;9.466;2023-10-09T08:20:24;9.98;;;4.65;;
14137;SDS011;8199;51.310;9.466;2023-10-09T08:22:54;12.20;;;4.90;;
14137;SDS011;8199;51.310;9.466;2023-10-09T08:25:21;10.80;;;4.95;;
14137;SDS011;8199;51.310;9.466;2023-10-09T08:28:02;8.52;;;4.65;;
14137;SDS011;8199;51.310;9.466;2023-10-09T08:30:40;9.05;;;3.60;;
14137;SDS011;8199;51.310;9.466;2023-10-09T08:33:14;9.52;;;4.32;;
14137;SDS011;8199;51.310;9.466;2023-10-09T08:35:53;12.02;;;4.75;;
14137;SDS011;8199;51.310;9.466;2023-10-09T08:38:32;8.88;;;4.53;;
14137;SDS011;8199;51.310;9.466;2023-10-09T08:41:11;7.65;;;3.60;;
14137;SDS011;8199;51.310;9.466;2023-10-09T08:43:52;11.32;;;4.22;;
14137;SDS011;8199;51.310;9.466;2023-10-09T08:46:19;11.20;;;4.57;;
14137;SDS011;8199;51.310;9.466;2023-10-09T08:48:48;10.35;;;4.10;;
14137;SDS011;8199;51.310;9.466;2023-10-09T08:51:16;8.13;;;3.88;;
14137;SDS011;8199;51.310;9.466;2023-10-09T08:53:43;10.65;;;4.57;;
14137;SDS011;8199;51.310;9.466;2023-10-09T08:56:11;9.60;;;4.68;;
14137;SDS011;8199;51.310;9.466;2023-10-09T08:58:44;11.27;;;4.60;;
14137;SDS011;8199;51.310;9.466;2023-10-09T09:01:10;9.00;;;4.13;;
14137;SDS011;8199;51.310;9.466;2023-10-09T09:03:42;6.43;;;3.78;;
14137;SDS011;8199;51.310;9.466;2023-10-09T09:06:08;7.15;;;3.92;;
14137;SDS011;8199;51.310;9.466;2023-10-09T09:08:35;11.40;;;4.20;;
14137;SDS011;8199;51.310;9.466;2023-10-09T09:13:37;8.38;;;4.00;;
14137;SDS011;8199;51.310;9.466;2023-10-09T09:18:55;5.75;;;3.17;;
14137;SDS011;8199;51.310;9.466;2023-10-09T09:21:35;8.63;;;4.00;;
14137;SDS011;8199;51.310;9.466;2023-10-09T09:24:06;5.60;;;3.47;;
14137;SDS011;8199;51.310;9.466;2023-10-09T09:27:01;7.80;;;3.55;;
14137;SDS011;8199;51.310;9.466;2023-10-09T09:29:46;6.90;;;3.90;;
14137;SDS011;8199;51.310;9.466;2023-10-09T09:32:25;7.97;;;3.83;;
14137;SDS011;8199;51.310;9.466;2023-10-09T09:35:00;8.02;;;3.88;;
14137;SDS011;8199;51.310;9.466;2023-10-09T09:37:28;7.20;;;3.92;;
14137;SDS011;8199;51.310;9.466;2023-10-09T09:39:56;6.32;;;3.40;;
14137;SDS011;8199;51.310;9.466;2023-10-09T09:42:23;7.20;;;3.55;;
14137;SDS011;8199;51.310;9.466;2023-10-09T09:44:52;7.53;;;3.60;;
14137;SDS011;8199;51.310;9.466;2023-10-09T09:47:18;5.95;;;3.20;;
14137;SDS011;8199;51.310;9.466;2023-10-09T09:49:53;7.75;;;3.80;;
14137;SDS011;8199;51.310;9.466;2023-10-09T09:52:26;6.90;;;3.47;;
14137;SDS011;8199;51.310;9.466;2023-10-09T09:55:03;7.78;;;3.47;;
14137;SDS011;8199;51.310;9.466;2023-10-09T09:57:30;5.90;;;3.47;;
14137;SDS011;8199;51.310;9.466;2023-10-09T10:00:02;7.55;;;3.63;;
14137;SDS011;8199;51.310;9.466;2023-10-09T10:02:35;7.65;;;3.40;;
14137;SDS011;8199;51.310;9.466;2023-10-09T10:05:04;6.20;;;3.85;;
14137;SDS011;8199;51.310;9.466;2023-10-09T10:07:32;8.50;;;4.35;;
14137;SDS011;8199;51.310;9.466;2023-10-09T10:16:11;5.07;;;3.10;;
14137;SDS011;8199;51.310;9.466;2023-10-09T10:18:59;6.90;;;3.13;;
14137;SDS011;8199;51.310;9.466;2023-10-09T10:21:43;6.03;;;3.30;;
14137;SDS011;8199;51.310;9.466;2023-10-09T10:27:16;6.03;;;3.47;;
14137;SDS011;8199;51.310;9.466;2023-10-09T10:35:41;5.65;;;3.33;;
14137;SDS011;8199;51.310;9.466;2023-10-09T10:38:30;6.35;;;3.35;;
14137;SDS011;8199;51.310;9.466;2023-10-09T10:41:13;4.22;;;2.92;;
14137;SDS011;8199;51.310;9.466;2023-10-09T10:43:46;5.25;;;3.42;;
14137;SDS011;8199;51.310;9.466;2023-10-09T10:46:21;4.57;;;2.97;;
14137;SDS011;8199;51.310;9.466;2023-10-09T10:49:00;5.60;;;2.90;;
14137;SDS011;8199;51.310;9.466;2023-10-09T10:51:41;4.97;;;3.10;;
14137;SDS011;8199;51.310;9.466;2023-10-09T10:54:19;5.35;;;3.50;;
14137;SDS011;8199;51.310;9.466;2023-10-09T10:56:58;6.72;;;3.30;;
14137;SDS011;8199;51.310;9.466;2023-10-09T10:59:25;5.07;;;3.10;;
14137;SDS011;8199;51.310;9.466;2023-10-09T11:02:01;4.22;;;3.00;;
14137;SDS011;8199;51.310;9.466;2023-10-09T11:04:34;3.78;;;2.65;;
14137;SDS011;8199;51.310;9.466;2023-10-09T11:07:10;4.55;;;3.03;;
14137;SDS011;8199;51.310;9.466;2023-10-09T11:09:47;4.43;;;2.88;;
14137;SDS011;8199;51.310;9.466;2023-10-09T11:12:29;4.88;;;3.30;;
14137;SDS011;8199;51.310;9.466;2023-10-09T11:15:35;4.32;;;3.00;;
14137;SDS011;8199;51.310;9.466;2023-10-09T11:18:22;4.47;;;2.67;;
14137;SDS011;8199;51.310;9.466;2023-10-09T11:20:52;5.03;;;3.20;;
14137;SDS011;8199;51.310;9.466;2023-10-09T11:23:29;5.00;;;2.95;;
14137;SDS011;8199;51.310;9.466;2023-10-09T11:25:58;4.05;;;2.63;;
14137;SDS011;8199;51.310;9.466;2023-10-09T11:28:44;5.00;;;2.95;;
14137;SDS011;8199;51.310;9.466;2023-10-09T11:31:22;5.22;;;3.20;;
14137;SDS011;8199;51.310;9.466;2023-10-09T11:33:48;4.43;;;2.90;;
14137;SDS011;8199;51.310;9.466;2023-10-09T11:36:16;5.18;;;3.10;;
14137;SDS011;8199;51.310;9.466;2023-10-09T11:39:01;4.88;;;2.75;;
14137;SDS011;8199;51.310;9.466;2023-10-09T11:41:43;4.35;;;2.47;;
14137;SDS011;8199;51.310;9.466;2023-10-09T11:44:09;6.47;;;3.47;;
14137;SDS011;8199;51.310;9.466;2023-10-09T11:47:01;3.72;;;2.60;;
14137;SDS011;8199;51.310;9.466;2023-10-09T11:49:52;4.45;;;2.97;;
14137;SDS011;8199;51.310;9.466;2023-10-09T11:52:25;4.38;;;2.88;;
14137;SDS011;8199;51.310;9.466;2023-10-09T11:55:02;5.90;;;3.00;;
14137;SDS011;8199;51.310;9.466;2023-10-09T11:57:41;4.25;;;2.80;;
14137;SDS011;8199;51.310;9.466;2023-10-09T12:00:07;4.45;;;3.00;;
14137;SDS011;8199;51.310;9.466;2023-10-09T12:02:50;4.47;;;2.70;;
14137;SDS011;8199;51.310;9.466;2023-10-09T12:05:17;4.75;;;2.95;;
14137;SDS011;8199;51.310;9.466;2023-10-09T12:07:44;4.47;;;2.70;;
14137;SDS011;8199;51.310;9.466;2023-10-09T12:10:10;3.45;;;2.47;;
14137;SDS011;8199;51.310;9.466;2023-10-09T12:12:38;4.32;;;2.50;;
14137;SDS011;8199;51.310;9.466;2023-10-09T12:15:05;3.97;;;2.95;;
14137;SDS011;8199;51.310;9.466;2023-10-09T12:17:31;3.00;;;2.42;;
14137;SDS011;8199;51.310;9.466;2023-10-09T12:19:57;4.57;;;2.70;;
14137;SDS011;8199;51.310;9.466;2023-10-09T12:22:23;3.88;;;2.55;;
14137;SDS011;8199;51.310;9.466;2023-10-09T12:24:52;4.43;;;2.53;;
14137;SDS011;8199;51.310;9.466;2023-10-09T12:27:18;3.78;;;2.60;;
14137;SDS011;8199;51.310;9.466;2023-10-09T12:29:45;4.93;;;2.88;;
14137;SDS011;8199;51.310;9.466;2023-10-09T12:32:11;4.38;;;2.47;;
14137;SDS011;8199;51.310;9.466;2023-10-09T12:34:37;3.83;;;2.20;;
14137;SDS011;8199;51.310;9.466;2023-10-09T12:37:03;3.63;;;2.30;;
14137;SDS011;8199;51.310;9.466;2023-10-09T12:39:29;4.60;;;2.75;;
14137;SDS011;8199;51.310;9.466;2023-10-09T12:42:05;4.00;;;2.30;;
14137;SDS011;8199;51.310;9.466;2023-10-09T12:44:37;3.28;;;2.45;;
14137;SDS011;8199;51.310;9.466;2023-10-09T12:47:05;4.53;;;2.67;;
14137;SDS011;8199;51.310;9.466;2023-10-09T12:49:31;3.88;;;2.47;;
14137;SDS011;8199;51.310;9.466;2023-10-09T12:51:57;3.47;;;2.38;;
14137;SDS011;8199;51.310;9.466;2023-10-09T12:54:26;3.53;;;2.63;;
14137;SDS011;8199;51.310;9.466;2023-10-09T12:56:55;3.30;;;2.33;;
14137;SDS011;8199;51.310;9.466;2023-10-09T12:59:21;5.32;;;2.83;;
14137;SDS011;8199;51.310;9.466;2023-10-09T13:01:48;2.65;;;2.08;;
14137;SDS011;8199;51.310;9.466;2023-10-09T13:04:17;3.38;;;2.20;;
14137;SDS011;8199;51.310;9.466;2023-10-09T13:06:47;4.93;;;2.88;;
14137;SDS011;8199;51.310;9.466;2023-10-09T13:09:16;3.58;;;2.83;;
14137;SDS011;8199;51.310;9.466;2023-10-09T13:11:50;3.72;;;2.50;;
14137;SDS011;8199;51.310;9.466;2023-10-09T13:14:16;3.95;;;2.50;;
14137;SDS011;8199;51.310;9.466;2023-10-09T13:16:42;3.67;;;2.45;;
14137;SDS011;8199;51.310;9.466;2023-10-09T13:19:08;3.50;;;2.33;;
14137;SDS011;8199;51.310;9.466;2023-10-09T13:21:37;3.42;;;2.13;;
14137;SDS011;8199;51.310;9.466;2023-10-09T13:24:05;4.90;;;2.60;;
14137;SDS011;8199;51.310;9.466;2023-10-09T13:26:37;3.72;;;2.30;;
14137;SDS011;8199;51.310;9.466;2023-10-09T13:29:04;3.40;;;2.45;;
14137;SDS011;8199;51.310;9.466;2023-10-09T13:31:34;3.67;;;2.50;;
14137;SDS011;8199;51.310;9.466;2023-10-09T13:34:03;3.78;;;2.70;;
14137;SDS011;8199;51.310;9.466;2023-10-09T13:36:31;3.15;;;2.30;;
14137;SDS011;8199;51.310;9.466;2023-10-09T13:39:02;3.47;;;2.47;;
14137;SDS011;8199;51.310;9.466;2023-10-09T13:41:48;3.70;;;2.78;;
14137;SDS011;8199;51.310;9.466;2023-10-09T13:44:26;2.95;;;2.30;;
14137;SDS011;8199;51.310;9.466;2023-10-09T13:46:58;2.85;;;2.20;;
14137;SDS011;8199;51.310;9.466;2023-10-09T13:49:31;2.70;;;2.10;;
14137;SDS011;8199;51.310;9.466;2023-10-09T13:51:57;3.55;;;2.40;;
14137;SDS011;8199;51.310;9.466;2023-10-09T13:54:25;3.83;;;2.10;;
14137;SDS011;8199;51.310;9.466;2023-10-09T13:56:57;3.65;;;2.67;;
14137;SDS011;8199;51.310;9.466;2023-10-09T13:59:23;3.08;;;2.30;;
14137;SDS011;8199;51.310;9.466;2023-10-09T14:01:52;3.10;;;2.10;;
14137;SDS011;8199;51.310;9.466;2023-10-09T14:04:21;3.53;;;2.22;;
14137;SDS011;8199;51.310;9.466;2023-10-09T14:06:48;3.22;;;2.67;;
14137;SDS011;8199;51.310;9.466;2023-10-09T14:09:22;2.95;;;2.17;;
14137;SDS011;8199;51.310;9.466;2023-10-09T14:12:02;3.40;;;2.42;;
14137;SDS011;8199;51.310;9.466;2023-10-09T14:14:35;3.33;;;2.20;;
14137;SDS011;8199;51.310;9.466;2023-10-09T14:17:14;5.80;;;2.60;;
14137;SDS011;8199;51.310;9.466;2023-10-09T14:19:44;4.20;;;2.33;;
14137;SDS011;8199;51.310;9.466;2023-10-09T14:22:13;4.65;;;2.50;;
14137;SDS011;8199;51.310;9.466;2023-10-09T14:24:43;2.47;;;2.00;;
14137;SDS011;8199;51.310;9.466;2023-10-09T14:27:13;3.38;;;2.80;;
14137;SDS011;8199;51.310;9.466;2023-10-09T14:29:47;4.13;;;2.38;;
14137;SDS011;8199;51.310;9.466;2023-10-09T14:32:13;2.70;;;1.92;;
14137;SDS011;8199;51.310;9.466;2023-10-09T14:34:42;2.80;;;2.40;;
14137;SDS011;8199;51.310;9.466;2023-10-09T14:37:16;2.97;;;2.45;;
14137;SDS011;8199;51.310;9.466;2023-10-09T14:39:45;2.95;;;2.25;;
14137;SDS011;8199;51.310;9.466;2023-10-09T14:42:13;4.22;;;2.30;;
14137;SDS011;8199;51.310;9.466;2023-10-09T14:44:40;3.90;;;2.30;;
14137;SDS011;8199;51.310;9.466;2023-10-09T14:47:06;2.55;;;2.17;;
14137;SDS011;8199;51.310;9.466;2023-10-09T14:49:35;3.53;;;2.40;;
14137;SDS011;8199;51.310;9.466;2023-10-09T14:52:02;3.08;;;2.28;;
14137;SDS011;8199;51.310;9.466;2023-10-09T14:54:29;3.45;;;2.35;;
14137;SDS011;8199;51.310;9.466;2023-10-09T14:56:54;4.35;;;2.40;;
14137;SDS011;8199;51.310;9.466;2023-10-09T14:59:21;3.17;;;2.38;;
14137;SDS011;8199;51.310;9.466;2023-10-09T15:01:47;3.50;;;2.65;;
14137;SDS011;8199;51.310;9.466;2023-10-09T15:04:15;3.63;;;2.08;;
14137;SDS011;8199;51.310;9.466;2023-10-09T15:06:41;3.22;;;1.95;;
14137;SDS011;8199;51.310;9.466;2023-10-09T15:09:06;3.70;;;2.40;;
14137;SDS011;8199;51.310;9.466;2023-10-09T15:11:46;4.47;;;2.80;;
14137;SDS011;8199;51.310;9.466;2023-10-09T15:14:13;4.80;;;2.58;;
14137;SDS011;8199;51.310;9.466;2023-10-09T15:16:39;4.88;;;2.47;;
14137;SDS011;8199;51.310;9.466;2023-10-09T15:19:08;5.50;;;2.20;;
14137;SDS011;8199;51.310;9.466;2023-10-09T15:21:35;3.90;;;2.58;;
14137;SDS011;8199;51.310;9.466;2023-10-09T15:24:08;4.15;;;2.65;;
14137;SDS011;8199;51.310;9.466;2023-10-09T15:26:47;3.95;;;2.50;;
14137;SDS011;8199;51.310;9.466;2023-10-09T15:29:23;3.47;;;2.22;;
14137;SDS011;8199;51.310;9.466;2023-10-09T15:31:56;3.35;;;2.33;;
14137;SDS011;8199;51.310;9.466;2023-10-09T15:34:29;4.25;;;2.50;;
14137;SDS011;8199;51.310;9.466;2023-10-09T15:36:56;3.67;;;2.45;;
14137;SDS011;8199;51.310;9.466;2023-10-09T15:39:22;3.78;;;2.40;;
14137;SDS011;8199;51.310;9.466;2023-10-09T15:41:49;10.48;;;2.78;;
14137;SDS011;8199;51.310;9.466;2023-10-09T15:44:15;3.42;;;2.20;;
14137;SDS011;8199;51.310;9.466;2023-10-09T15:46:41;4.93;;;2.60;;
14137;SDS011;8199;51.310;9.466;2023-10-09T15:49:10;3.72;;;2.33;;
14137;SDS011;8199;51.310;9.466;2023-10-09T15:51:38;4.10;;;2.50;;
14137;SDS011;8199;51.310;9.466;2023-10-09T15:54:03;3.45;;;2.35;;
14137;SDS011;8199;51.310;9.466;2023-10-09T15:56:29;3.30;;;2.70;;
14137;SDS011;8199;51.310;9.466;2023-10-09T15:58:54;4.55;;;2.92;;
14137;SDS011;8199;51.310;9.466;2023-10-09T16:01:21;3.35;;;2.20;;
14137;SDS011;8199;51.310;9.466;2023-10-09T16:03:47;3.38;;;2.47;;